sensor_id;sensor_type;location;lat;lon;timestamp;P1;durP1;ratioP1;P2;durP2;ratioP2
75760;SDS011;64373;46.136;8.830;2023-05-14T00:00:13;1.58;;;0.70;;
75760;SDS011;64373;46.136;8.830;2023-05-14T00:02:41;1.20;;;0.90;;
75760;SDS011;64373;46.136;8.830;2023-05-14T00:05:07;3.42;;;0.85;;
75760;SDS011;64373;46.136;8.830;2023-05-14T00:07:33;2.97;;;1.10;;
75760;SDS011;64373;46.136;8.830;2023-05-14T00:09:59;1.50;;;1.00;;
75760;SDS011;64373;46.136;8.830;2023-05-14T00:12:26;1.08;;;0.70;;
75760;SDS011;64373;46.136;8.830;2023-05-14T00:14:54;1.35;;;1.10;;
75760;SDS011;64373;46.136;8.830;2023-05-14T00:17:20;1.02;;;0.93;;
75760;SDS011;64373;46.136;8.830;2023-05-14T00:19:46;1.55;;;0.70;;
75760;SDS011;64373;46.136;8.830;2023-05-14T00:22:12;1.50;;;0.80;;
75760;SDS011;64373;46.136;8.830;2023-05-14T00:24:37;0.80;;;0.80;;
75760;SDS011;64373;46.136;8.830;2023-05-14T00:27:03;1.30;;;0.82;;
75760;SDS011;64373;46.136;8.830;2023-05-14T00:29:29;2.97;;;0.90;;
75760;SDS011;64373;46.136;8.830;2023-05-14T00:31:54;1.40;;;0.80;;
75760;SDS011;64373;46.136;8.830;2023-05-14T00:34:20;1.70;;;0.80;;
75760;SDS011;64373;46.136;8.830;2023-05-14T00:36:46;2.28;;;1.08;;
75760;SDS011;64373;46.136;8.830;2023-05-14T00:39:12;0.80;;;0.70;;
75760;SDS011;64373;46.136;8.830;2023-05-14T00:41:38;2.35;;;0.73;;
75760;SDS011;64373;46.136;8.830;2023-05-14T00:44:03;2.72;;;1.05;;
75760;SDS011;64373;46.136;8.830;2023-05-14T00:46:29;0.77;;;0.70;;
75760;SDS011;64373;46.136;8.830;2023-05-14T00:48:55;2.40;;;0.80;;
75760;SDS011;64373;46.136;8.830;2023-05-14T00:51:21;0.95;;;0.85;;
75760;SDS011;64373;46.136;8.830;2023-05-14T00:53:47;1.35;;;0.80;;
75760;SDS011;64373;46.136;8.830;2023-05-14T00:56:13;0.65;;;0.65;;
75760;SDS011;64373;46.136;8.830;2023-05-14T00:58:39;0.90;;;0.77;;
75760;SDS011;64373;46.136;8.830;2023-05-14T01:01:05;0.70;;;0.70;;
75760;SDS011;64373;46.136;8.830;2023-05-14T01:03:30;1.95;;;1.02;;
75760;SDS011;64373;46.136;8.830;2023-05-14T01:11:55;2.42;;;0.77;;
75760;SDS011;64373;46.136;8.830;2023-05-14T01:17:11;4.40;;;0.85;;
75760;SDS011;64373;46.136;8.830;2023-05-14T01:19:40;1.75;;;0.90;;
75760;SDS011;64373;46.136;8.830;2023-05-14T01:22:06;2.97;;;0.98;;
75760;SDS011;64373;46.136;8.830;2023-05-14T01:24:32;2.17;;;1.00;;
75760;SDS011;64373;46.136;8.830;2023-05-14T01:27:00;1.10;;;1.00;;
75760;SDS011;64373;46.136;8.830;2023-05-14T01:29:31;0.82;;;0.80;;
75760;SDS011;64373;46.136;8.830;2023-05-14T01:31:58;1.65;;;0.90;;
75760;SDS011;64373;46.136;8.830;2023-05-14T01:34:25;0.70;;;0.70;;
75760;SDS011;64373;46.136;8.830;2023-05-14T01:36:52;1.00;;;0.70;;
75760;SDS011;64373;46.136;8.830;2023-05-14T01:39:20;1.77;;;0.70;;
75760;SDS011;64373;46.136;8.830;2023-05-14T01:41:47;0.93;;;0.88;;
75760;SDS011;64373;46.136;8.830;2023-05-14T01:44:13;1.85;;;1.05;;
75760;SDS011;64373;46.136;8.830;2023-05-14T01:46:39;1.40;;;0.98;;
75760;SDS011;64373;46.136;8.830;2023-05-14T01:49:04;1.20;;;1.00;;
75760;SDS011;64373;46.136;8.830;2023-05-14T01:51:29;1.88;;;1.13;;
75760;SDS011;64373;46.136;8.830;2023-05-14T01:53:55;2.88;;;1.15;;
75760;SDS011;64373;46.136;8.830;2023-05-14T01:56:21;1.65;;;1.02;;
75760;SDS011;64373;46.136;8.830;2023-05-14T01:58:48;0.98;;;0.85;;
75760;SDS011;64373;46.136;8.830;2023-05-14T02:01:13;1.00;;;0.90;;
75760;SDS011;64373;46.136;8.830;2023-05-14T02:03:39;2.33;;;1.20;;
75760;SDS011;64373;46.136;8.830;2023-05-14T02:06:05;1.23;;;1.00;;
75760;SDS011;64373;46.136;8.830;2023-05-14T02:08:30;2.85;;;1.25;;
75760;SDS011;64373;46.136;8.830;2023-05-14T02:10:56;3.08;;;0.90;;
75760;SDS011;64373;46.136;8.830;2023-05-14T02:13:21;0.75;;;0.75;;
75760;SDS011;64373;46.136;8.830;2023-05-14T02:15:48;1.55;;;0.77;;
75760;SDS011;64373;46.136;8.830;2023-05-14T02:18:13;1.95;;;1.08;;
75760;SDS011;64373;46.136;8.830;2023-05-14T02:20:39;3.88;;;1.00;;
75760;SDS011;64373;46.136;8.830;2023-05-14T02:23:05;1.17;;;1.00;;
75760;SDS011;64373;46.136;8.830;2023-05-14T02:25:30;1.35;;;0.90;;
75760;SDS011;64373;46.136;8.830;2023-05-14T02:27:56;4.57;;;1.40;;
75760;SDS011;64373;46.136;8.830;2023-05-14T02:30:21;1.63;;;0.85;;
75760;SDS011;64373;46.136;8.830;2023-05-14T02:32:47;1.83;;;0.93;;
75760;SDS011;64373;46.136;8.830;2023-05-14T02:35:12;1.92;;;1.00;;
75760;SDS011;64373;46.136;8.830;2023-05-14T02:37:38;1.15;;;0.90;;
75760;SDS011;64373;46.136;8.830;2023-05-14T02:40:03;2.85;;;0.90;;
75760;SDS011;64373;46.136;8.830;2023-05-14T02:42:30;2.70;;;1.00;;
75760;SDS011;64373;46.136;8.830;2023-05-14T02:44:55;1.52;;;0.70;;
75760;SDS011;64373;46.136;8.830;2023-05-14T02:47:21;4.80;;;0.93;;
75760;SDS011;64373;46.136;8.830;2023-05-14T02:49:46;0.95;;;0.70;;
75760;SDS011;64373;46.136;8.830;2023-05-14T02:52:12;1.52;;;1.00;;
75760;SDS011;64373;46.136;8.830;2023-05-14T02:54:37;3.72;;;1.02;;
75760;SDS011;64373;46.136;8.830;2023-05-14T02:57:03;3.65;;;1.55;;
75760;SDS011;64373;46.136;8.830;2023-05-14T02:59:28;2.70;;;0.90;;
75760;SDS011;64373;46.136;8.830;2023-05-14T03:01:55;2.78;;;0.90;;
75760;SDS011;64373;46.136;8.830;2023-05-14T03:04:21;1.75;;;0.80;;
75760;SDS011;64373;46.136;8.830;2023-05-14T03:06:47;2.63;;;0.93;;
75760;SDS011;64373;46.136;8.830;2023-05-14T03:09:13;1.95;;;1.02;;
75760;SDS011;64373;46.136;8.830;2023-05-14T03:11:38;0.68;;;0.68;;
75760;SDS011;64373;46.136;8.830;2023-05-14T03:14:04;1.00;;;0.90;;
75760;SDS011;64373;46.136;8.830;2023-05-14T03:16:29;1.17;;;0.93;;
75760;SDS011;64373;46.136;8.830;2023-05-14T03:18:55;3.50;;;1.10;;
75760;SDS011;64373;46.136;8.830;2023-05-14T03:21:20;0.90;;;0.80;;
75760;SDS011;64373;46.136;8.830;2023-05-14T03:23:46;1.88;;;0.90;;
75760;SDS011;64373;46.136;8.830;2023-05-14T03:26:11;0.80;;;0.80;;
75760;SDS011;64373;46.136;8.830;2023-05-14T03:28:37;0.93;;;0.80;;
75760;SDS011;64373;46.136;8.830;2023-05-14T03:31:02;1.10;;;1.00;;
75760;SDS011;64373;46.136;8.830;2023-05-14T03:33:28;1.80;;;0.90;;
75760;SDS011;64373;46.136;8.830;2023-05-14T03:35:53;0.80;;;0.80;;
75760;SDS011;64373;46.136;8.830;2023-05-14T03:38:19;0.70;;;0.70;;
75760;SDS011;64373;46.136;8.830;2023-05-14T03:40:44;1.13;;;0.88;;
75760;SDS011;64373;46.136;8.830;2023-05-14T03:43:10;0.75;;;0.73;;
75760;SDS011;64373;46.136;8.830;2023-05-14T03:45:36;2.78;;;0.90;;
75760;SDS011;64373;46.136;8.830;2023-05-14T03:48:01;1.05;;;0.95;;
75760;SDS011;64373;46.136;8.830;2023-05-14T03:50:27;1.00;;;0.90;;
75760;SDS011;64373;46.136;8.830;2023-05-14T03:52:53;3.25;;;0.90;;
75760;SDS011;64373;46.136;8.830;2023-05-14T03:55:19;3.25;;;0.93;;
75760;SDS011;64373;46.136;8.830;2023-05-14T03:57:46;1.13;;;1.02;;
75760;SDS011;64373;46.136;8.830;2023-05-14T04:00:12;2.22;;;0.98;;
75760;SDS011;64373;46.136;8.830;2023-05-14T04:02:38;3.85;;;1.00;;
75760;SDS011;64373;46.136;8.830;2023-05-14T04:05:03;1.13;;;1.02;;
75760;SDS011;64373;46.136;8.830;2023-05-14T04:07:29;1.33;;;1.00;;
75760;SDS011;64373;46.136;8.830;2023-05-14T04:09:55;1.45;;;0.85;;
75760;SDS011;64373;46.136;8.830;2023-05-14T04:12:20;2.55;;;1.10;;
75760;SDS011;64373;46.136;8.830;2023-05-14T04:14:46;1.75;;;1.05;;
75760;SDS011;64373;46.136;8.830;2023-05-14T04:17:11;1.80;;;1.10;;
75760;SDS011;64373;46.136;8.830;2023-05-14T04:19:37;2.10;;;1.10;;
75760;SDS011;64373;46.136;8.830;2023-05-14T04:22:03;3.97;;;1.15;;
75760;SDS011;64373;46.136;8.830;2023-05-14T04:24:29;1.48;;;1.15;;
75760;SDS011;64373;46.136;8.830;2023-05-14T04:26:54;1.58;;;0.90;;
75760;SDS011;64373;46.136;8.830;2023-05-14T04:29:20;1.70;;;1.10;;
75760;SDS011;64373;46.136;8.830;2023-05-14T04:31:45;2.13;;;1.27;;
75760;SDS011;64373;46.136;8.830;2023-05-14T04:34:11;1.20;;;0.80;;
75760;SDS011;64373;46.136;8.830;2023-05-14T04:36:36;2.30;;;1.10;;
75760;SDS011;64373;46.136;8.830;2023-05-14T04:39:02;1.52;;;1.30;;
75760;SDS011;64373;46.136;8.830;2023-05-14T04:41:28;1.15;;;1.05;;
75760;SDS011;64373;46.136;8.830;2023-05-14T04:43:57;2.20;;;1.02;;
75760;SDS011;64373;46.136;8.830;2023-05-14T04:46:24;1.77;;;1.20;;
75760;SDS011;64373;46.136;8.830;2023-05-14T04:48:49;1.20;;;1.10;;
75760;SDS011;64373;46.136;8.830;2023-05-14T04:51:15;1.30;;;1.13;;
75760;SDS011;64373;46.136;8.830;2023-05-14T04:53:41;1.45;;;1.00;;
75760;SDS011;64373;46.136;8.830;2023-05-14T04:56:06;1.75;;;1.08;;
75760;SDS011;64373;46.136;8.830;2023-05-14T04:58:32;0.93;;;0.90;;
75760;SDS011;64373;46.136;8.830;2023-05-14T05:00:58;2.45;;;1.00;;
75760;SDS011;64373;46.136;8.830;2023-05-14T05:03:24;2.45;;;1.20;;
75760;SDS011;64373;46.136;8.830;2023-05-14T05:05:49;1.10;;;1.00;;
75760;SDS011;64373;46.136;8.830;2023-05-14T05:08:16;1.38;;;1.02;;
75760;SDS011;64373;46.136;8.830;2023-05-14T05:10:48;1.50;;;1.20;;
75760;SDS011;64373;46.136;8.830;2023-05-14T05:13:16;1.85;;;1.10;;
75760;SDS011;64373;46.136;8.830;2023-05-14T05:15:47;1.30;;;1.10;;
75760;SDS011;64373;46.136;8.830;2023-05-14T05:18:17;0.98;;;0.80;;
75760;SDS011;64373;46.136;8.830;2023-05-14T05:20:47;3.40;;;1.00;;
75760;SDS011;64373;46.136;8.830;2023-05-14T05:23:18;1.27;;;0.82;;
75760;SDS011;64373;46.136;8.830;2023-05-14T05:25:51;1.20;;;1.08;;
75760;SDS011;64373;46.136;8.830;2023-05-14T05:28:21;1.30;;;1.00;;
75760;SDS011;64373;46.136;8.830;2023-05-14T05:30:46;1.30;;;1.10;;
75760;SDS011;64373;46.136;8.830;2023-05-14T05:33:12;1.83;;;0.93;;
75760;SDS011;64373;46.136;8.830;2023-05-14T05:35:38;1.17;;;0.93;;
75760;SDS011;64373;46.136;8.830;2023-05-14T05:38:03;3.03;;;0.90;;
75760;SDS011;64373;46.136;8.830;2023-05-14T05:40:29;1.63;;;0.80;;
75760;SDS011;64373;46.136;8.830;2023-05-14T05:42:54;1.65;;;0.75;;
75760;SDS011;64373;46.136;8.830;2023-05-14T05:45:20;1.60;;;1.00;;
75760;SDS011;64373;46.136;8.830;2023-05-14T05:47:45;1.48;;;0.80;;
75760;SDS011;64373;46.136;8.830;2023-05-14T05:50:11;1.30;;;1.20;;
75760;SDS011;64373;46.136;8.830;2023-05-14T05:52:37;1.40;;;1.25;;
75760;SDS011;64373;46.136;8.830;2023-05-14T05:55:04;1.40;;;1.27;;
75760;SDS011;64373;46.136;8.830;2023-05-14T05:57:30;2.50;;;1.13;;
75760;SDS011;64373;46.136;8.830;2023-05-14T05:59:55;1.50;;;1.20;;
75760;SDS011;64373;46.136;8.830;2023-05-14T06:02:22;1.50;;;1.10;;
75760;SDS011;64373;46.136;8.830;2023-05-14T06:04:49;2.00;;;1.13;;
75760;SDS011;64373;46.136;8.830;2023-05-14T06:07:14;1.50;;;1.25;;
75760;SDS011;64373;46.136;8.830;2023-05-14T06:09:40;2.53;;;1.10;;
75760;SDS011;64373;46.136;8.830;2023-05-14T06:12:06;3.05;;;1.10;;
75760;SDS011;64373;46.136;8.830;2023-05-14T06:14:31;2.10;;;1.45;;
75760;SDS011;64373;46.136;8.830;2023-05-14T06:16:57;1.17;;;0.98;;
75760;SDS011;64373;46.136;8.830;2023-05-14T06:19:23;1.40;;;1.27;;
75760;SDS011;64373;46.136;8.830;2023-05-14T06:21:48;2.05;;;1.60;;
75760;SDS011;64373;46.136;8.830;2023-05-14T06:24:14;1.73;;;1.60;;
75760;SDS011;64373;46.136;8.830;2023-05-14T06:26:40;1.60;;;1.20;;
75760;SDS011;64373;46.136;8.830;2023-05-14T06:29:06;1.73;;;1.10;;
75760;SDS011;64373;46.136;8.830;2023-05-14T06:31:31;1.60;;;1.10;;
75760;SDS011;64373;46.136;8.830;2023-05-14T06:33:57;1.90;;;1.40;;
75760;SDS011;64373;46.136;8.830;2023-05-14T06:36:22;1.42;;;1.08;;
75760;SDS011;64373;46.136;8.830;2023-05-14T06:38:51;1.15;;;1.00;;
75760;SDS011;64373;46.136;8.830;2023-05-14T06:41:16;2.00;;;1.00;;
75760;SDS011;64373;46.136;8.830;2023-05-14T06:43:42;1.05;;;0.80;;
75760;SDS011;64373;46.136;8.830;2023-05-14T06:46:07;1.20;;;1.10;;
75760;SDS011;64373;46.136;8.830;2023-05-14T06:48:33;2.20;;;0.93;;
75760;SDS011;64373;46.136;8.830;2023-05-14T06:50:58;1.90;;;1.02;;
75760;SDS011;64373;46.136;8.830;2023-05-14T06:53:24;1.65;;;0.95;;
75760;SDS011;64373;46.136;8.830;2023-05-14T06:55:49;2.40;;;1.10;;
75760;SDS011;64373;46.136;8.830;2023-05-14T06:58:15;2.08;;;1.17;;
75760;SDS011;64373;46.136;8.830;2023-05-14T07:00:41;1.63;;;1.30;;
75760;SDS011;64373;46.136;8.830;2023-05-14T07:03:06;1.75;;;1.27;;
75760;SDS011;64373;46.136;8.830;2023-05-14T07:05:32;3.17;;;1.02;;
75760;SDS011;64373;46.136;8.830;2023-05-14T07:07:57;2.08;;;1.02;;
75760;SDS011;64373;46.136;8.830;2023-05-14T07:10:23;1.90;;;1.63;;
75760;SDS011;64373;46.136;8.830;2023-05-14T07:12:49;1.67;;;1.27;;
75760;SDS011;64373;46.136;8.830;2023-05-14T07:15:15;1.98;;;1.15;;
75760;SDS011;64373;46.136;8.830;2023-05-14T07:17:40;1.33;;;0.98;;
75760;SDS011;64373;46.136;8.830;2023-05-14T07:20:06;1.27;;;0.90;;
75760;SDS011;64373;46.136;8.830;2023-05-14T07:22:32;1.45;;;0.90;;
75760;SDS011;64373;46.136;8.830;2023-05-14T07:24:58;2.03;;;0.95;;
75760;SDS011;64373;46.136;8.830;2023-05-14T07:27:24;1.10;;;0.75;;
75760;SDS011;64373;46.136;8.830;2023-05-14T07:29:49;1.58;;;0.80;;
75760;SDS011;64373;46.136;8.830;2023-05-14T07:32:15;1.58;;;0.95;;
75760;SDS011;64373;46.136;8.830;2023-05-14T07:34:41;1.00;;;0.90;;
75760;SDS011;64373;46.136;8.830;2023-05-14T07:37:06;0.80;;;0.80;;
75760;SDS011;64373;46.136;8.830;2023-05-14T07:39:32;1.20;;;0.65;;
75760;SDS011;64373;46.136;8.830;2023-05-14T07:41:58;0.93;;;0.65;;
75760;SDS011;64373;46.136;8.830;2023-05-14T07:44:24;2.28;;;0.80;;
75760;SDS011;64373;46.136;8.830;2023-05-14T07:46:50;0.70;;;0.70;;
75760;SDS011;64373;46.136;8.830;2023-05-14T07:49:16;1.58;;;0.82;;
75760;SDS011;64373;46.136;8.830;2023-05-14T07:51:42;1.33;;;0.90;;
75760;SDS011;64373;46.136;8.830;2023-05-14T07:54:07;1.13;;;1.00;;
75760;SDS011;64373;46.136;8.830;2023-05-14T07:56:33;1.40;;;0.80;;
75760;SDS011;64373;46.136;8.830;2023-05-14T07:58:58;1.70;;;0.70;;
75760;SDS011;64373;46.136;8.830;2023-05-14T08:01:24;1.13;;;0.80;;
75760;SDS011;64373;46.136;8.830;2023-05-14T08:03:50;0.93;;;0.68;;
75760;SDS011;64373;46.136;8.830;2023-05-14T08:06:15;1.70;;;0.63;;
75760;SDS011;64373;46.136;8.830;2023-05-14T08:08:41;0.82;;;0.65;;
75760;SDS011;64373;46.136;8.830;2023-05-14T08:11:07;0.65;;;0.65;;
75760;SDS011;64373;46.136;8.830;2023-05-14T08:13:32;2.78;;;0.90;;
75760;SDS011;64373;46.136;8.830;2023-05-14T08:15:58;0.80;;;0.80;;
75760;SDS011;64373;46.136;8.830;2023-05-14T08:18:24;0.90;;;0.80;;
75760;SDS011;64373;46.136;8.830;2023-05-14T08:20:49;0.77;;;0.70;;
75760;SDS011;64373;46.136;8.830;2023-05-14T08:23:15;0.70;;;0.60;;
75760;SDS011;64373;46.136;8.830;2023-05-14T08:25:41;1.40;;;0.68;;
75760;SDS011;64373;46.136;8.830;2023-05-14T08:28:06;1.88;;;0.80;;
75760;SDS011;64373;46.136;8.830;2023-05-14T08:30:32;1.15;;;0.80;;
75760;SDS011;64373;46.136;8.830;2023-05-14T08:32:58;0.95;;;0.70;;
75760;SDS011;64373;46.136;8.830;2023-05-14T08:35:24;1.65;;;0.80;;
75760;SDS011;64373;46.136;8.830;2023-05-14T08:37:53;0.70;;;0.70;;
75760;SDS011;64373;46.136;8.830;2023-05-14T08:40:20;1.52;;;1.00;;
75760;SDS011;64373;46.136;8.830;2023-05-14T08:42:46;2.17;;;0.98;;
75760;SDS011;64373;46.136;8.830;2023-05-14T08:45:15;0.60;;;0.60;;
75760;SDS011;64373;46.136;8.830;2023-05-14T08:47:44;1.05;;;0.70;;
75760;SDS011;64373;46.136;8.830;2023-05-14T08:50:13;0.80;;;0.80;;
75760;SDS011;64373;46.136;8.830;2023-05-14T08:52:38;1.10;;;0.90;;
75760;SDS011;64373;46.136;8.830;2023-05-14T08:55:04;1.10;;;0.70;;
75760;SDS011;64373;46.136;8.830;2023-05-14T08:57:31;1.33;;;0.88;;
75760;SDS011;64373;46.136;8.830;2023-05-14T08:59:57;1.60;;;0.82;;
75760;SDS011;64373;46.136;8.830;2023-05-14T09:02:23;2.58;;;0.80;;
75760;SDS011;64373;46.136;8.830;2023-05-14T09:04:53;0.68;;;0.68;;
75760;SDS011;64373;46.136;8.830;2023-05-14T09:07:20;1.17;;;0.80;;
75760;SDS011;64373;46.136;8.830;2023-05-14T09:09:46;0.70;;;0.70;;
75760;SDS011;64373;46.136;8.830;2023-05-14T09:12:12;2.00;;;0.70;;
75760;SDS011;64373;46.136;8.830;2023-05-14T09:14:38;1.15;;;0.55;;
75760;SDS011;64373;46.136;8.830;2023-05-14T09:17:04;1.27;;;0.70;;
75760;SDS011;64373;46.136;8.830;2023-05-14T09:19:29;7.32;;;1.52;;
75760;SDS011;64373;46.136;8.830;2023-05-14T09:21:58;0.98;;;0.90;;
75760;SDS011;64373;46.136;8.830;2023-05-14T09:24:25;0.80;;;0.80;;
75760;SDS011;64373;46.136;8.830;2023-05-14T09:26:53;0.52;;;0.50;;
75760;SDS011;64373;46.136;8.830;2023-05-14T09:29:20;0.47;;;0.47;;
75760;SDS011;64373;46.136;8.830;2023-05-14T09:31:49;0.90;;;0.50;;
75760;SDS011;64373;46.136;8.830;2023-05-14T09:34:33;1.38;;;0.40;;
75760;SDS011;64373;46.136;8.830;2023-05-14T09:37:03;1.85;;;0.68;;
75760;SDS011;64373;46.136;8.830;2023-05-14T09:39:29;2.55;;;0.50;;
75760;SDS011;64373;46.136;8.830;2023-05-14T09:41:56;1.17;;;0.60;;
75760;SDS011;64373;46.136;8.830;2023-05-14T09:44:22;0.43;;;0.43;;
75760;SDS011;64373;46.136;8.830;2023-05-14T09:46:48;1.52;;;0.50;;
75760;SDS011;64373;46.136;8.830;2023-05-14T09:49:14;1.25;;;0.70;;
75760;SDS011;64373;46.136;8.830;2023-05-14T09:51:40;0.77;;;0.50;;
75760;SDS011;64373;46.136;8.830;2023-05-14T09:54:06;1.20;;;0.57;;
75760;SDS011;64373;46.136;8.830;2023-05-14T09:56:33;2.83;;;0.73;;
75760;SDS011;64373;46.136;8.830;2023-05-14T09:58:59;1.30;;;0.50;;
75760;SDS011;64373;46.136;8.830;2023-05-14T10:01:25;1.48;;;0.55;;
75760;SDS011;64373;46.136;8.830;2023-05-14T10:03:56;0.50;;;0.50;;
75760;SDS011;64373;46.136;8.830;2023-05-14T10:06:22;0.50;;;0.40;;
75760;SDS011;64373;46.136;8.830;2023-05-14T10:08:52;3.13;;;0.57;;
75760;SDS011;64373;46.136;8.830;2023-05-14T10:11:20;1.63;;;0.70;;
75760;SDS011;64373;46.136;8.830;2023-05-14T10:14:10;0.70;;;0.57;;
75760;SDS011;64373;46.136;8.830;2023-05-14T10:16:44;0.77;;;0.63;;
75760;SDS011;64373;46.136;8.830;2023-05-14T10:19:14;0.75;;;0.60;;
75760;SDS011;64373;46.136;8.830;2023-05-14T10:21:40;2.00;;;0.70;;
75760;SDS011;64373;46.136;8.830;2023-05-14T10:24:09;0.60;;;0.60;;
75760;SDS011;64373;46.136;8.830;2023-05-14T10:26:37;0.60;;;0.60;;
75760;SDS011;64373;46.136;8.830;2023-05-14T10:29:05;0.55;;;0.50;;
75760;SDS011;64373;46.136;8.830;2023-05-14T10:31:50;2.08;;;0.80;;
75760;SDS011;64373;46.136;8.830;2023-05-14T10:37:24;1.02;;;0.50;;
75760;SDS011;64373;46.136;8.830;2023-05-14T10:39:51;0.60;;;0.60;;
75760;SDS011;64373;46.136;8.830;2023-05-14T10:42:21;0.95;;;0.60;;
75760;SDS011;64373;46.136;8.830;2023-05-14T10:44:49;0.68;;;0.40;;
75760;SDS011;64373;46.136;8.830;2023-05-14T10:47:29;0.60;;;0.60;;
75760;SDS011;64373;46.136;8.830;2023-05-14T10:49:57;1.55;;;0.65;;
75760;SDS011;64373;46.136;8.830;2023-05-14T10:52:25;0.50;;;0.50;;
75760;SDS011;64373;46.136;8.830;2023-05-14T10:54:55;0.65;;;0.50;;
75760;SDS011;64373;46.136;8.830;2023-05-14T10:57:25;0.60;;;0.60;;
75760;SDS011;64373;46.136;8.830;2023-05-14T10:59:53;0.50;;;0.50;;
75760;SDS011;64373;46.136;8.830;2023-05-14T11:05:00;0.60;;;0.60;;
75760;SDS011;64373;46.136;8.830;2023-05-14T11:07:37;1.52;;;0.60;;
75760;SDS011;64373;46.136;8.830;2023-05-14T11:10:07;0.50;;;0.50;;
75760;SDS011;64373;46.136;8.830;2023-05-14T11:12:36;0.60;;;0.50;;
75760;SDS011;64373;46.136;8.830;2023-05-14T11:15:04;1.02;;;0.73;;
75760;SDS011;64373;46.136;8.830;2023-05-14T11:17:31;0.70;;;0.52;;
75760;SDS011;64373;46.136;8.830;2023-05-14T11:19:59;1.08;;;0.70;;
75760;SDS011;64373;46.136;8.830;2023-05-14T11:22:24;4.38;;;0.70;;
75760;SDS011;64373;46.136;8.830;2023-05-14T11:24:50;1.05;;;0.50;;
75760;SDS011;64373;46.136;8.830;2023-05-14T11:27:16;1.10;;;0.70;;
75760;SDS011;64373;46.136;8.830;2023-05-14T11:29:43;0.50;;;0.50;;
75760;SDS011;64373;46.136;8.830;2023-05-14T11:32:10;0.80;;;0.77;;
75760;SDS011;64373;46.136;8.830;2023-05-14T11:34:36;0.88;;;0.60;;
75760;SDS011;64373;46.136;8.830;2023-05-14T11:37:05;1.00;;;0.73;;
75760;SDS011;64373;46.136;8.830;2023-05-14T11:39:31;0.93;;;0.60;;
75760;SDS011;64373;46.136;8.830;2023-05-14T11:42:18;0.50;;;0.50;;
75760;SDS011;64373;46.136;8.830;2023-05-14T11:44:48;0.65;;;0.65;;
75760;SDS011;64373;46.136;8.830;2023-05-14T11:47:16;0.73;;;0.57;;
75760;SDS011;64373;46.136;8.830;2023-05-14T11:49:42;1.70;;;0.60;;
75760;SDS011;64373;46.136;8.830;2023-05-14T11:52:08;0.57;;;0.57;;
75760;SDS011;64373;46.136;8.830;2023-05-14T11:54:35;1.58;;;0.65;;
75760;SDS011;64373;46.136;8.830;2023-05-14T11:57:07;0.63;;;0.55;;
75760;SDS011;64373;46.136;8.830;2023-05-14T11:59:35;1.40;;;0.70;;
75760;SDS011;64373;46.136;8.830;2023-05-14T12:02:01;1.80;;;0.70;;
75760;SDS011;64373;46.136;8.830;2023-05-14T12:04:29;0.52;;;0.50;;
75760;SDS011;64373;46.136;8.830;2023-05-14T12:06:56;0.52;;;0.52;;
75760;SDS011;64373;46.136;8.830;2023-05-14T12:09:23;0.60;;;0.60;;
75760;SDS011;64373;46.136;8.830;2023-05-14T12:11:49;1.35;;;0.50;;
75760;SDS011;64373;46.136;8.830;2023-05-14T12:14:16;0.80;;;0.65;;
75760;SDS011;64373;46.136;8.830;2023-05-14T12:16:43;1.48;;;0.50;;
75760;SDS011;64373;46.136;8.830;2023-05-14T12:19:10;0.52;;;0.52;;
75760;SDS011;64373;46.136;8.830;2023-05-14T12:21:38;0.50;;;0.50;;
75760;SDS011;64373;46.136;8.830;2023-05-14T12:24:15;0.50;;;0.50;;
75760;SDS011;64373;46.136;8.830;2023-05-14T12:26:46;1.58;;;0.60;;
75760;SDS011;64373;46.136;8.830;2023-05-14T12:29:13;1.17;;;0.50;;
75760;SDS011;64373;46.136;8.830;2023-05-14T12:31:46;1.70;;;0.57;;
75760;SDS011;64373;46.136;8.830;2023-05-14T12:34:15;0.60;;;0.60;;
75760;SDS011;64373;46.136;8.830;2023-05-14T12:36:41;0.60;;;0.60;;
75760;SDS011;64373;46.136;8.830;2023-05-14T12:39:07;0.60;;;0.60;;
75760;SDS011;64373;46.136;8.830;2023-05-14T12:41:33;4.75;;;0.70;;
75760;SDS011;64373;46.136;8.830;2023-05-14T12:44:00;0.68;;;0.68;;
75760;SDS011;64373;46.136;8.830;2023-05-14T12:46:27;0.60;;;0.60;;
75760;SDS011;64373;46.136;8.830;2023-05-14T12:48:53;6.68;;;0.88;;
75760;SDS011;64373;46.136;8.830;2023-05-14T12:51:19;0.77;;;0.50;;
75760;SDS011;64373;46.136;8.830;2023-05-14T12:53:44;0.73;;;0.50;;
75760;SDS011;64373;46.136;8.830;2023-05-14T12:56:10;0.60;;;0.60;;
75760;SDS011;64373;46.136;8.830;2023-05-14T12:58:36;1.67;;;0.50;;
75760;SDS011;64373;46.136;8.830;2023-05-14T13:01:03;2.92;;;0.68;;
75760;SDS011;64373;46.136;8.830;2023-05-14T13:03:28;0.55;;;0.50;;
75760;SDS011;64373;46.136;8.830;2023-05-14T13:05:54;0.80;;;0.50;;
75760;SDS011;64373;46.136;8.830;2023-05-14T13:08:20;0.50;;;0.50;;
75760;SDS011;64373;46.136;8.830;2023-05-14T13:10:49;0.80;;;0.60;;
75760;SDS011;64373;46.136;8.830;2023-05-14T13:13:15;1.33;;;0.50;;
75760;SDS011;64373;46.136;8.830;2023-05-14T13:15:41;2.50;;;0.40;;
75760;SDS011;64373;46.136;8.830;2023-05-14T13:18:07;0.50;;;0.50;;
75760;SDS011;64373;46.136;8.830;2023-05-14T13:20:32;0.50;;;0.50;;
75760;SDS011;64373;46.136;8.830;2023-05-14T13:22:58;0.40;;;0.40;;
75760;SDS011;64373;46.136;8.830;2023-05-14T13:25:24;0.95;;;0.50;;
75760;SDS011;64373;46.136;8.830;2023-05-14T13:27:50;1.00;;;0.52;;
75760;SDS011;64373;46.136;8.830;2023-05-14T13:30:19;0.30;;;0.30;;
75760;SDS011;64373;46.136;8.830;2023-05-14T13:32:55;0.60;;;0.35;;
75760;SDS011;64373;46.136;8.830;2023-05-14T13:35:21;1.00;;;0.40;;
75760;SDS011;64373;46.136;8.830;2023-05-14T13:37:46;0.65;;;0.50;;
75760;SDS011;64373;46.136;8.830;2023-05-14T13:40:12;0.50;;;0.50;;
75760;SDS011;64373;46.136;8.830;2023-05-14T13:42:37;0.88;;;0.50;;
75760;SDS011;64373;46.136;8.830;2023-05-14T13:45:06;0.52;;;0.50;;
75760;SDS011;64373;46.136;8.830;2023-05-14T13:47:33;0.65;;;0.40;;
75760;SDS011;64373;46.136;8.830;2023-05-14T13:49:59;2.35;;;0.70;;
75760;SDS011;64373;46.136;8.830;2023-05-14T13:52:24;0.50;;;0.50;;
75760;SDS011;64373;46.136;8.830;2023-05-14T13:54:50;2.05;;;0.60;;
75760;SDS011;64373;46.136;8.830;2023-05-14T13:57:17;0.60;;;0.60;;
75760;SDS011;64373;46.136;8.830;2023-05-14T13:59:44;1.20;;;0.70;;
75760;SDS011;64373;46.136;8.830;2023-05-14T14:02:10;1.25;;;0.60;;
75760;SDS011;64373;46.136;8.830;2023-05-14T14:04:36;0.60;;;0.60;;
75760;SDS011;64373;46.136;8.830;2023-05-14T14:07:01;1.75;;;0.90;;
75760;SDS011;64373;46.136;8.830;2023-05-14T14:09:27;1.80;;;0.60;;
75760;SDS011;64373;46.136;8.830;2023-05-14T14:11:52;0.98;;;0.63;;
75760;SDS011;64373;46.136;8.830;2023-05-14T14:14:18;0.57;;;0.57;;
75760;SDS011;64373;46.136;8.830;2023-05-14T14:16:43;0.63;;;0.57;;
75760;SDS011;64373;46.136;8.830;2023-05-14T14:19:09;0.60;;;0.60;;
75760;SDS011;64373;46.136;8.830;2023-05-14T14:21:34;0.50;;;0.50;;
75760;SDS011;64373;46.136;8.830;2023-05-14T14:24:00;0.75;;;0.60;;
75760;SDS011;64373;46.136;8.830;2023-05-14T14:26:26;0.50;;;0.50;;
75760;SDS011;64373;46.136;8.830;2023-05-14T14:28:53;0.60;;;0.60;;
75760;SDS011;64373;46.136;8.830;2023-05-14T14:31:19;0.75;;;0.68;;
75760;SDS011;64373;46.136;8.830;2023-05-14T14:33:45;2.60;;;0.70;;
75760;SDS011;64373;46.136;8.830;2023-05-14T14:36:11;0.73;;;0.60;;
75760;SDS011;64373;46.136;8.830;2023-05-14T14:38:36;3.60;;;0.60;;
75760;SDS011;64373;46.136;8.830;2023-05-14T14:41:03;0.50;;;0.50;;
75760;SDS011;64373;46.136;8.830;2023-05-14T14:43:31;1.95;;;0.60;;
75760;SDS011;64373;46.136;8.830;2023-05-14T14:45:57;1.75;;;0.50;;
75760;SDS011;64373;46.136;8.830;2023-05-14T14:50:52;0.82;;;0.50;;
75760;SDS011;64373;46.136;8.830;2023-05-14T14:53:18;0.52;;;0.50;;
75760;SDS011;64373;46.136;8.830;2023-05-14T14:55:44;1.45;;;1.35;;
75760;SDS011;64373;46.136;8.830;2023-05-14T14:58:10;0.55;;;0.50;;
75760;SDS011;64373;46.136;8.830;2023-05-14T15:00:35;1.55;;;0.57;;